Time;durP1;ratioP1;P1;durP2;ratioP2;P2;SDS_P1;SDS_P2;PMS_P1;PMS_P2;Temp;Humidity;BMP_temperature;BMP_pressure;BME280_temperature;BME280_humidity;BME280_pressure;Samples;Min_cycle;Max_cycle;Signal;HPM_P1;HPM_P2
2023/03/01 00:00:29;;;;;;;;;;;;;;;25.54;51.78;97672.14;597561;237;68640;-74
2023/03/01 00:02:57;;;;;;;;;;;;;;;25.54;51.90;97677.52;597553;237;68565;-74
2023/03/01 00:05:24;;;;;;;;;;;;;;;25.53;54.10;97675.91;597534;237;64910;-74
2023/03/01 00:07:53;;;;;;;;;;;;;;;25.53;52.77;97676.70;597555;237;69423;-74
2023/03/01 00:10:21;;;;;;;;;;;;;;;25.52;53.01;97677.80;597338;237;68656;-74
2023/03/01 00:12:48;;;;;;;;;;;;;;;25.52;52.54;97674.31;597555;237;64948;-74
2023/03/01 00:15:16;;;;;;;;;;;;;;;25.51;52.67;97670.82;597509;237;68342;-74
2023/03/01 00:17:43;;;;;;;;;;;;;;;25.50;51.11;97660.33;597585;237;68557;-74
2023/03/01 00:20:11;;;;;;;;;;;;;;;25.51;53.49;97662.75;597493;237;64922;-75
2023/03/01 00:22:39;;;;;;;;;;;;;;;25.51;55.23;97651.16;597539;237;68870;-75
2023/03/01 00:25:06;;;;;;;;;;;;;;;25.50;53.22;97649.56;597498;237;68796;-75
2023/03/01 00:27:34;;;;;;;;;;;;;;;25.50;52.35;97654.95;597511;237;64954;-75
2023/03/01 00:30:01;;;;;;;;;;;;;;;25.50;52.11;97657.64;597593;237;68701;-75
2023/03/01 00:32:29;;;;;;;;;;;;;;;25.48;52.80;97655.22;597531;237;66769;-74
2023/03/01 00:34:56;;;;;;;;;;;;;;;25.49;52.93;97658.73;597541;237;62908;-75
2023/03/01 00:37:25;;;;;;;;;;;;;;;25.47;54.12;97651.73;597573;237;66154;-74
2023/03/01 00:39:52;;;;;;;;;;;;;;;25.47;52.87;97640.97;597540;237;68330;-75
2023/03/01 00:42:20;;;;;;;;;;;;;;;25.46;52.68;97639.38;597603;237;63701;-74
2023/03/01 00:44:47;;;;;;;;;;;;;;;25.45;54.26;97629.71;597527;237;66295;-75
2023/03/01 00:47:15;;;;;;;;;;;;;;;25.46;53.42;97630.50;597538;237;68387;-75
2023/03/01 00:49:42;;;;;;;;;;;;;;;25.45;52.36;97636.95;597548;237;66223;-75
2023/03/01 00:52:10;;;;;;;;;;;;;;;25.45;53.94;97632.40;597512;237;68349;-75
2023/03/01 00:54:37;;;;;;;;;;;;;;;25.44;52.58;97638.05;597569;237;68484;-75
2023/03/01 00:57:05;;;;;;;;;;;;;;;25.44;54.78;97638.05;597543;237;62701;-74
2023/03/01 00:59:32;;;;;;;;;;;;;;;25.44;53.64;97638.85;597540;237;67731;-74
2023/03/01 01:02:00;;;;;;;;;;;;;;;25.42;51.68;97638.33;597547;237;68351;-74
2023/03/01 01:04:27;;;;;;;;;;;;;;;25.44;53.13;97638.05;597523;237;62990;-74
2023/03/01 01:06:55;;;;;;;;;;;;;;;25.42;54.82;97624.88;597568;237;66696;-74
2023/03/01 01:09:22;;;;;;;;;;;;;;;25.42;53.75;97626.77;597493;237;66860;-74
2023/03/01 01:11:53;;;;;;;;;;;;;;;25.41;53.86;97625.97;597515;237;65044;-74
2023/03/01 01:14:22;;;;;;;;;;;;;;;25.42;53.50;97626.77;597502;237;68842;-73
2023/03/01 01:16:49;;;;;;;;;;;;;;;25.40;54.93;97618.17;597517;237;66436;-73
2023/03/01 01:19:17;;;;;;;;;;;;;;;25.39;53.52;97617.38;597486;237;66051;-73
2023/03/01 01:21:45;;;;;;;;;;;;;;;25.40;55.41;97613.62;597521;237;68851;-73
2023/03/01 01:24:12;;;;;;;;;;;;;;;25.38;51.91;97623.85;597570;237;66140;-73
2023/03/01 01:26:40;;;;;;;;;;;;;;;25.39;55.56;97617.38;597537;237;64077;-73
2023/03/01 01:29:08;;;;;;;;;;;;;;;25.38;52.74;97612.30;597529;237;66179;-73
2023/03/01 01:31:36;;;;;;;;;;;;;;;25.38;54.31;97607.71;597503;237;66676;-73
2023/03/01 01:34:05;;;;;;;;;;;;;;;25.37;53.44;97600.73;597499;237;64960;-73
2023/03/01 01:36:33;;;;;;;;;;;;;;;25.37;52.70;97599.91;597568;237;66930;-73
2023/03/01 01:39:01;;;;;;;;;;;;;;;25.36;53.33;97596.42;597541;237;66697;-73
2023/03/01 01:41:29;;;;;;;;;;;;;;;25.36;54.16;97601.80;591730;237;66511;-73
2023/03/01 01:44:15;;;;;;;;;;;;;;;25.35;52.49;97605.59;597510;237;66539;-74
2023/03/01 01:46:47;;;;;;;;;;;;;;;25.36;54.03;97606.39;597516;237;68610;-73
2023/03/01 01:49:19;;;;;;;;;;;;;;;25.34;54.11;97606.66;597476;237;64917;-72
2023/03/01 01:51:48;;;;;;;;;;;;;;;25.34;54.31;97603.17;594090;237;66522;-74
2023/03/01 01:54:23;;;;;;;;;;;;;;;25.34;53.70;97598.59;597516;237;67476;-73
2023/03/01 01:56:55;;;;;;;;;;;;;;;25.32;51.21;97594.58;597421;237;64737;-72
2023/03/01 01:59:24;;;;;;;;;;;;;;;25.32;52.36;97599.95;597399;237;66374;-74
2023/03/01 02:01:53;;;;;;;;;;;;;;;25.31;52.32;97595.67;597522;237;69189;-74
2023/03/01 02:04:21;;;;;;;;;;;;;;;25.32;54.18;97599.95;597541;237;65216;-74
2023/03/01 02:06:50;;;;;;;;;;;;;;;25.31;54.50;97593.78;597566;237;68899;-74
2023/03/01 02:09:19;;;;;;;;;;;;;;;25.31;54.18;97598.37;597495;237;66391;-74
2023/03/01 02:11:47;;;;;;;;;;;;;;;25.29;53.63;97590.59;597499;237;64939;-74
2023/03/01 02:14:15;;;;;;;;;;;;;;;25.29;51.85;97589.77;597540;237;68832;-74
2023/03/01 02:16:43;;;;;;;;;;;;;;;25.30;55.61;97591.39;597530;237;68275;-74
2023/03/01 02:19:12;;;;;;;;;;;;;;;25.28;54.08;97588.18;597553;237;65159;-74
2023/03/01 02:21:53;;;;;;;;;;;;;;;25.28;54.45;97593.56;597415;237;68705;-74
2023/03/01 02:24:31;;;;;;;;;;;;;;;25.27;54.38;97591.97;597292;237;66798;-74
2023/03/01 02:26:59;;;;;;;;;;;;;;;25.27;54.97;97589.28;597511;237;64912;-73
2023/03/01 02:29:27;;;;;;;;;;;;;;;25.26;54.12;97593.83;597516;237;68637;-73
2023/03/01 02:31:56;;;;;;;;;;;;;;;25.25;52.03;97586.86;597501;237;66628;-73
2023/03/01 02:34:27;;;;;;;;;;;;;;;25.24;52.62;97590.65;597584;237;49880;-73
2023/03/01 02:36:56;;;;;;;;;;;;;;;25.24;53.71;97579.89;597505;237;66610;-73
2023/03/01 02:39:27;;;;;;;;;;;;;;;25.23;55.35;97584.44;597516;237;66561;-73
2023/03/01 02:41:56;;;;;;;;;;;;;;;25.22;54.64;97585.54;597533;237;62839;-73
2023/03/01 02:44:24;;;;;;;;;;;;;;;25.22;51.84;97582.84;597520;237;68557;-73
2023/03/01 02:46:52;;;;;;;;;;;;;;;25.22;54.36;97582.05;597520;237;68412;-73
2023/03/01 02:49:24;;;;;;;;;;;;;;;25.21;53.24;97583.95;596189;237;63829;-73
2023/03/01 02:52:10;;;;;;;;;;;;;;;25.21;54.18;97585.84;595513;238;66932;-73
2023/03/01 02:54:42;;;;;;;;;;;;;;;25.19;51.89;97574.55;595500;238;68552;-73
2023/03/01 02:57:10;;;;;;;;;;;;;;;25.19;53.87;97582.63;595492;238;62847;-73
2023/03/01 02:59:39;;;;;;;;;;;;;;;25.18;54.37;97573.76;595513;238;69181;-72
2023/03/01 03:02:08;;;;;;;;;;;;;;;25.17;53.52;97571.34;595526;238;66115;-74
2023/03/01 03:04:35;;;;;;;;;;;;;;;25.17;52.87;97576.72;595519;238;64963;-74
2023/03/01 03:07:03;;;;;;;;;;;;;;;25.17;53.21;97587.48;595544;238;68872;-74
2023/03/01 03:09:30;;;;;;;;;;;;;;;25.17;54.59;97587.48;595483;238;68507;-74
2023/03/01 03:11:58;;;;;;;;;;;;;;;25.15;52.21;97586.95;595496;238;65060;-74
2023/03/01 03:14:26;;;;;;;;;;;;;;;25.15;54.24;97593.13;595521;238;65848;-74
2023/03/01 03:16:53;;;;;;;;;;;;;;;25.15;53.23;97590.44;595504;238;66060;-74
2023/03/01 03:19:21;;;;;;;;;;;;;;;25.15;55.31;97586.95;595514;238;64942;-74
2023/03/01 03:21:49;;;;;;;;;;;;;;;25.14;54.32;97588.81;595511;238;68618;-74
2023/03/01 03:24:18;;;;;;;;;;;;;;;25.13;54.58;97591.80;595475;238;68521;-74
2023/03/01 03:26:45;;;;;;;;;;;;;;;25.13;53.57;97589.12;595530;238;65173;-74
2023/03/01 03:29:13;;;;;;;;;;;;;;;25.13;53.09;97583.73;595538;238;66426;-73
2023/03/01 03:31:40;;;;;;;;;;;;;;;25.12;52.38;97588.29;595539;238;66223;-73
2023/03/01 03:34:08;;;;;;;;;;;;;;;25.11;52.19;97588.59;595505;238;62770;-73
2023/03/01 03:36:35;;;;;;;;;;;;;;;25.11;52.87;97588.59;595481;238;66355;-73
2023/03/01 03:39:02;;;;;;;;;;;;;;;25.11;54.95;97588.59;595477;238;66849;-73
2023/03/01 03:41:30;;;;;;;;;;;;;;;25.10;54.63;97586.97;595561;238;62877;-73
2023/03/01 03:43:57;;;;;;;;;;;;;;;25.09;53.70;97588.86;595483;238;68392;-73
2023/03/01 03:46:25;;;;;;;;;;;;;;;25.09;52.32;97588.06;595523;238;66480;-73
2023/03/01 03:48:53;;;;;;;;;;;;;;;25.08;52.18;97584.58;595530;238;64992;-73
2023/03/01 03:51:22;;;;;;;;;;;;;;;25.07;51.93;97582.16;595494;238;68684;-73
2023/03/01 03:53:53;;;;;;;;;;;;;;;25.07;52.63;97580.27;595574;238;66487;-73
2023/03/01 03:56:25;;;;;;;;;;;;;;;25.06;51.09;97592.13;594898;238;46617;-74
2023/03/01 03:58:52;;;;;;;;;;;;;;;25.06;51.62;97588.64;595475;238;66131;-75
2023/03/01 04:01:20;;;;;;;;;;;;;;;25.06;54.10;97583.26;595543;238;66549;-75
2023/03/01 04:03:47;;;;;;;;;;;;;;;25.05;54.08;97587.84;595484;238;62852;-74
2023/03/01 04:06:15;;;;;;;;;;;;;;;25.04;53.83;97578.15;595578;238;66608;-72
2023/03/01 04:08:46;;;;;;;;;;;;;;;25.03;51.68;97582.73;595540;238;66418;-72
2023/03/01 04:11:27;;;;;;;;;;;;;;;25.02;53.40;97581.14;589639;238;46238;-73
2023/03/01 04:13:56;;;;;;;;;;;;;;;25.03;55.06;97585.42;595535;238;68829;-73
2023/03/01 04:16:24;;;;;;;;;;;;;;;25.01;53.09;97584.89;595507;238;66660;-73
2023/03/01 04:18:53;;;;;;;;;;;;;;;25.01;54.59;97584.09;595537;238;62586;-73
2023/03/01 04:21:20;;;;;;;;;;;;;;;25.00;53.68;97583.30;595564;238;68794;-73
2023/03/01 04:23:52;;;;;;;;;;;;;;;25.00;55.05;97583.30;595528;238;68521;-73
2023/03/01 04:26:17;;;;;;;;;;;;;;;24.99;52.65;97583.57;595455;236;64942;-73
2023/03/01 04:28:45;;;;;;;;;;;;;;;24.99;53.46;97591.64;595457;238;68768;-73
2023/03/01 04:31:17;;;;;;;;;;;;;;;24.97;51.04;97594.63;595545;238;66149;-74
2023/03/01 04:33:52;;;;;;;;;;;;;;;24.98;54.74;97592.73;595589;238;63033;-73
2023/03/01 04:36:20;;;;;;;;;;;;;;;24.97;53.88;97596.52;595549;238;68591;-73
2023/03/01 04:38:48;;;;;;;;;;;;;;;24.96;52.65;97595.72;595539;238;68703;-73
2023/03/01 04:41:19;;;;;;;;;;;;;;;24.95;53.45;97586.03;595520;238;62812;-73
2023/03/01 04:43:48;;;;;;;;;;;;;;;24.95;53.53;97587.92;595543;238;66515;-73
2023/03/01 04:46:17;;;;;;;;;;;;;;;24.96;54.95;97592.20;595560;238;68067;-74
2023/03/01 04:48:45;;;;;;;;;;;;;;;24.95;55.13;97594.09;596331;237;62803;-73
2023/03/01 04:51:15;;;;;;;;;;;;;;;24.93;54.06;97598.95;597558;237;68445;-73
2023/03/01 04:53:44;;;;;;;;;;;;;;;24.91;52.88;97585.02;597537;237;68541;-74
2023/03/01 04:56:13;;;;;;;;;;;;;;;24.91;52.84;97592.25;597531;237;65217;-74
2023/03/01 04:58:41;;;;;;;;;;;;;;;24.90;53.28;97594.14;597544;237;68614;-74
2023/03/01 05:01:14;;;;;;;;;;;;;;;24.90;51.98;97587.97;597591;237;68288;-73
2023/03/01 05:03:39;;;;;;;;;;;;;;;24.89;53.69;97587.17;597465;237;66180;-73
2023/03/01 05:06:07;;;;;;;;;;;;;;;24.90;53.19;97598.72;597557;237;68069;-73
2023/03/01 05:08:36;;;;;;;;;;;;;;;24.87;54.12;97594.71;597508;237;68298;-74
2023/03/01 05:11:03;;;;;;;;;;;;;;;24.89;54.70;97594.44;597539;237;65371;-73
2023/03/01 05:13:31;;;;;;;;;;;;;;;24.88;54.38;97598.20;597531;237;68377;-73
2023/03/01 05:16:00;;;;;;;;;;;;;;;24.87;54.78;97594.71;597569;237;68543;-74
2023/03/01 05:18:30;;;;;;;;;;;;;;;24.86;53.98;97593.12;597496;237;62757;-73
2023/03/01 05:20:59;;;;;;;;;;;;;;;24.87;54.79;97604.66;597458;237;69204;-73
2023/03/01 05:23:26;;;;;;;;;;;;;;;24.85;53.94;97602.25;597396;237;68942;-75
2023/03/01 05:25:54;;;;;;;;;;;;;;;24.84;54.41;97595.28;597543;237;65481;-74
2023/03/01 05:28:22;;;;;;;;;;;;;;;24.84;53.40;97589.91;597551;237;66471;-73
2023/03/01 05:30:52;;;;;;;;;;;;;;;24.85;53.94;97590.70;597522;237;66275;-73
2023/03/01 05:33:19;;;;;;;;;;;;;;;24.84;52.65;97595.28;597511;237;64904;-73
2023/03/01 05:35:48;;;;;;;;;;;;;;;24.83;53.16;97593.69;597529;237;68521;-73
2023/03/01 05:38:16;;;;;;;;;;;;;;;24.84;53.59;97591.80;597522;237;66482;-73
2023/03/01 05:40:44;;;;;;;;;;;;;;;24.83;53.16;97595.55;597580;237;62700;-73
2023/03/01 05:43:12;;;;;;;;;;;;;;;24.81;54.12;97588.58;597511;237;68743;-73
2023/03/01 05:45:40;;;;;;;;;;;;;;;24.82;53.07;97592.06;597512;237;68645;-73
2023/03/01 05:48:09;;;;;;;;;;;;;;;24.81;52.80;97596.64;597198;237;64225;-73
2023/03/01 05:50:37;;;;;;;;;;;;;;;24.82;52.91;97600.13;595514;238;66522;-73
2023/03/01 05:53:07;;;;;;;;;;;;;;;24.83;54.68;97596.38;595528;238;69047;-72
2023/03/01 05:55:35;;;;;;;;;;;;;;;24.83;53.28;97603.61;595588;238;63013;-72
2023/03/01 05:58:04;;;;;;;;;;;;;;;24.83;55.54;97604.44;595510;238;68622;-73
2023/03/01 06:00:33;;;;;;;;;;;;;;;24.84;54.18;97595.28;595502;238;68226;-72
2023/03/01 06:03:00;;;;;;;;;;;;;;;24.83;55.08;97607.13;595516;238;62786;-72
2023/03/01 06:05:28;;;;;;;;;;;;;;;24.83;54.76;97599.06;595505;238;66446;-72
2023/03/01 06:07:57;;;;;;;;;;;;;;;24.83;54.35;97612.50;595520;238;69146;-72
2023/03/01 06:10:25;;;;;;;;;;;;;;;24.83;54.23;97606.30;595526;238;64891;-73
2023/03/01 06:12:53;;;;;;;;;;;;;;;24.82;52.27;97608.19;595484;238;68733;-75
2023/03/01 06:15:23;;;;;;;;;;;;;;;24.82;51.59;97605.50;595429;238;51068;-73
2023/03/01 06:17:50;;;;;;;;;;;;;;;24.82;50.77;97613.56;595526;238;64909;-73
2023/03/01 06:20:21;;;;;;;;;;;;;;;24.83;53.29;97615.19;595537;238;68614;-74
2023/03/01 06:22:50;;;;;;;;;;;;;;;24.84;53.85;97614.09;595512;238;68681;-74
2023/03/01 06:25:19;;;;;;;;;;;;;;;24.83;53.02;97614.36;595538;238;62839;-74
2023/03/01 06:27:48;;;;;;;;;;;;;;;24.83;52.48;97611.67;595465;238;66121;-75
2023/03/01 06:30:19;;;;;;;;;;;;;;;24.84;52.27;97616.78;595544;238;49811;-76
2023/03/01 06:32:46;;;;;;;;;;;;;;;24.83;53.74;97609.81;595510;238;62827;-74
2023/03/01 06:35:17;;;;;;;;;;;;;;;24.84;54.73;97602.55;595527;238;66733;-74
2023/03/01 06:37:45;;;;;;;;;;;;;;;24.85;52.17;97612.20;595519;238;68619;-74
2023/03/01 06:40:13;;;;;;;;;;;;;;;24.85;55.40;97604.14;595496;238;65650;-73
2023/03/01 06:42:42;;;;;;;;;;;;;;;24.84;54.42;97611.41;595495;238;68672;-73
2023/03/01 06:45:09;;;;;;;;;;;;;;;24.84;52.13;97605.23;595520;238;66304;-74
2023/03/01 06:47:37;;;;;;;;;;;;;;;24.84;54.79;97611.41;595551;238;64001;-73
2023/03/01 06:50:05;;;;;;;;;;;;;;;24.83;50.38;97607.13;597385;237;66414;-75
2023/03/01 06:52:32;;;;;;;;;;;;;;;24.83;55.31;97604.44;597475;237;68619;-73
2023/03/01 06:55:00;;;;;;;;;;;;;;;24.83;53.96;97601.75;597517;237;64942;-73
2023/03/01 06:57:28;;;;;;;;;;;;;;;24.83;54.88;97598.23;597410;237;68887;-74
2023/03/01 06:59:55;;;;;;;;;;;;;;;24.84;55.74;97599.86;597530;237;66465;-78
2023/03/01 07:02:23;;;;;;;;;;;;;;;24.83;53.92;97599.06;596855;237;65119;-69
2023/03/01 07:04:51;;;;;;;;;;;;;;;24.84;54.20;97606.03;597471;237;69678;-69
2023/03/01 07:07:19;;;;;;;;;;;;;;;24.85;54.75;97613.00;597461;237;68661;-69
2023/03/01 07:09:47;;;;;;;;;;;;;;;24.84;53.14;97615.98;597291;237;63666;-73
2023/03/01 07:12:16;;;;;;;;;;;;;;;24.82;50.77;97605.50;597032;237;66721;-71
2023/03/01 07:14:45;;;;;;;;;;;;;;;24.83;52.60;97609.81;597226;237;68415;-70
2023/03/01 07:17:13;;;;;;;;;;;;;;;24.81;53.40;97602.02;597428;237;64953;-74
2023/03/01 07:19:40;;;;;;;;;;;;;;;24.81;51.68;97595.84;597423;237;66509;-73
2023/03/01 07:22:09;;;;;;;;;;;;;;;24.83;51.90;97598.23;597415;237;66776;-72
2023/03/01 07:24:36;;;;;;;;;;;;;;;24.82;51.27;97600.13;597446;237;65140;-72
2023/03/01 07:27:04;;;;;;;;;;;;;;;24.82;52.87;97608.19;597538;237;68720;-73
2023/03/01 07:29:31;;;;;;;;;;;;;;;24.80;51.27;97603.11;597468;237;68575;-76
2023/03/01 07:31:59;;;;;;;;;;;;;;;24.80;53.03;97602.31;597394;237;63907;-75
2023/03/01 07:34:26;;;;;;;;;;;;;;;24.80;54.09;97591.56;597478;237;66638;-71
2023/03/01 07:36:54;;;;;;;;;;;;;;;24.79;54.14;97598.80;597473;237;66448;-73
2023/03/01 07:39:22;;;;;;;;;;;;;;;24.78;52.06;97596.41;597457;237;62760;-73
2023/03/01 07:41:50;;;;;;;;;;;;;;;24.78;53.58;97594.52;597529;237;68576;-74
2023/03/01 07:44:20;;;;;;;;;;;;;;;24.78;53.51;97597.20;597453;237;46060;-72
2023/03/01 07:46:47;;;;;;;;;;;;;;;24.79;54.17;97595.31;597362;237;64955;-71
2023/03/01 07:49:16;;;;;;;;;;;;;;;24.79;53.71;97595.31;597435;237;66671;-72
2023/03/01 07:51:44;;;;;;;;;;;;;;;24.80;53.42;97599.63;597358;237;66716;-77
2023/03/01 07:54:12;;;;;;;;;;;;;;;24.78;51.05;97586.45;597414;237;64839;-74
2023/03/01 07:56:40;;;;;;;;;;;;;;;24.78;53.84;97585.66;596819;237;68663;-71
2023/03/01 07:59:08;;;;;;;;;;;;;;;24.78;53.28;97589.14;597018;237;66398;-74
2023/03/01 08:01:35;;;;;;;;;;;;;;;24.79;53.20;97589.94;596863;237;63532;-71
2023/03/01 08:04:04;;;;;;;;;;;;;;;24.80;54.75;97588.88;597011;237;66592;-71
2023/03/01 08:06:32;;;;;;;;;;;;;;;24.81;54.31;97590.47;596977;237;68681;-73
2023/03/01 08:08:59;;;;;;;;;;;;;;;24.80;55.17;97594.25;596968;237;64912;-76
2023/03/01 08:11:32;;;;;;;;;;;;;;;24.78;52.93;97594.52;596987;237;68682;-74
2023/03/01 08:13:57;;;;;;;;;;;;;;;24.79;53.35;97593.42;596572;236;66459;-70
2023/03/01 08:16:24;;;;;;;;;;;;;;;24.80;53.53;97588.88;597005;237;64927;-74
2023/03/01 08:18:52;;;;;;;;;;;;;;;24.80;53.16;97591.56;597003;237;68430;-74
2023/03/01 08:21:19;;;;;;;;;;;;;;;24.80;53.43;97594.25;597245;237;68398;-73
2023/03/01 08:23:47;;;;;;;;;;;;;;;24.80;52.86;97594.25;597459;237;62748;-75
2023/03/01 08:26:16;;;;;;;;;;;;;;;24.81;54.52;97590.47;597477;237;66418;-76
2023/03/01 08:28:44;;;;;;;;;;;;;;;24.80;55.29;97588.88;597293;237;68308;-66
2023/03/01 08:31:16;;;;;;;;;;;;;;;24.81;54.51;97590.47;597424;237;64955;-71
2023/03/01 08:33:44;;;;;;;;;;;;;;;24.82;53.30;97581.31;597292;237;66469;-72
2023/03/01 08:36:11;;;;;;;;;;;;;;;24.83;55.56;97584.80;597304;237;66808;-73
2023/03/01 08:38:39;;;;;;;;;;;;;;;24.83;55.91;97585.63;597475;237;62841;-72
2023/03/01 08:41:06;;;;;;;;;;;;;;;24.83;57.11;97591.00;597093;237;66580;-71
2023/03/01 08:43:34;;;;;;;;;;;;;;;24.83;54.92;97585.63;596739;237;66423;-70
2023/03/01 08:46:01;;;;;;;;;;;;;;;24.83;55.09;97591.00;596177;238;64904;-70
2023/03/01 08:48:29;;;;;;;;;;;;;;;24.85;55.02;97588.80;595910;238;68674;-70
2023/03/01 08:50:57;;;;;;;;;;;;;;;24.84;54.75;97584.52;595520;238;67136;-69
2023/03/01 08:53:24;;;;;;;;;;;;;;;24.85;52.98;97594.19;595568;238;62783;-71
2023/03/01 08:55:52;;;;;;;;;;;;;;;24.86;53.77;97595.80;595483;238;66951;-72
2023/03/01 08:58:19;;;;;;;;;;;;;;;24.86;52.58;97590.43;595577;238;66224;-69
2023/03/01 09:00:47;;;;;;;;;;;;;;;24.88;55.03;97595.50;598792;236;62746;-70
2023/03/01 09:03:14;;;;;;;;;;;;;;;24.87;55.60;97600.09;599784;236;68823;-71
2023/03/01 09:05:42;;;;;;;;;;;;;;;24.88;54.43;97590.95;599801;236;68307;-69
2023/03/01 09:08:09;;;;;;;;;;;;;;;24.88;54.46;97596.33;599809;236;66217;-73
2023/03/01 09:10:39;;;;;;;;;;;;;;;24.89;54.27;97591.75;599823;236;68354;-69
2023/03/01 09:13:06;;;;;;;;;;;;;;;24.90;46.60;97582.59;599746;236;68680;-72
2023/03/01 09:15:34;;;;;;;;;;;;;;;24.93;53.99;97588.20;599037;236;64897;-74
2023/03/01 09:18:01;;;;;;;;;;;;;;;24.94;51.42;97580.95;599486;236;67439;-71
2023/03/01 09:20:30;;;;;;;;;;;;;;;24.94;51.81;97584.44;599694;236;66711;-69
2023/03/01 09:22:58;;;;;;;;;;;;;;;24.95;55.69;97577.97;599761;236;64894;-69
2023/03/01 09:25:25;;;;;;;;;;;;;;;24.96;53.14;97582.28;599785;236;68613;-70
2023/03/01 09:27:53;;;;;;;;;;;;;;;24.96;55.76;97584.97;599796;236;68589;-69
2023/03/01 09:30:21;;;;;;;;;;;;;;;24.97;52.58;97583.08;599730;236;64984;-71
2023/03/01 09:32:49;;;;;;;;;;;;;;;24.98;53.23;97587.36;599840;236;68874;-70
2023/03/01 09:35:16;;;;;;;;;;;;;;;24.98;50.76;97593.53;599825;236;69645;-70
2023/03/01 09:37:44;;;;;;;;;;;;;;;24.98;48.99;97588.16;599388;236;64984;-70
2023/03/01 09:40:19;;;;;;;;;;;;;;;25.00;51.16;97596.75;599370;236;68698;-72
2023/03/01 09:42:48;;;;;;;;;;;;;;;25.00;50.92;97594.06;599762;236;66337;-71
2023/03/01 09:45:23;;;;;;;;;;;;;;;25.00;48.24;97588.68;599695;236;62783;-72
2023/03/01 09:47:50;;;;;;;;;;;;;;;25.01;50.39;97590.27;599537;236;68755;-72
2023/03/01 09:50:19;;;;;;;;;;;;;;;25.02;51.59;97586.52;595904;238;68902;-72
2023/03/01 09:53:01;;;;;;;;;;;;;;;25.01;49.77;97584.89;596000;238;64915;-71
2023/03/01 09:55:30;;;;;;;;;;;;;;;25.02;49.23;97588.41;596026;238;68602;-72
2023/03/01 09:58:02;;;;;;;;;;;;;;;25.02;51.44;97586.52;595691;238;68591;-71
2023/03/01 10:00:32;;;;;;;;;;;;;;;25.03;50.53;97590.00;587694;238;64880;-70
2023/03/01 10:03:03;;;;;;;;;;;;;;;25.02;46.58;97585.72;594277;238;69746;-70
2023/03/01 10:05:41;;;;;;;;;;;;;;;25.05;50.42;97585.16;595763;238;66362;-70
2023/03/01 10:08:10;;;;;;;;;;;;;;;25.06;49.09;97575.19;595961;238;65066;-70
2023/03/01 10:10:42;;;;;;;;;;;;;;;25.08;50.24;97578.41;596015;238;69258;-69
2023/03/01 10:13:11;;;;;;;;;;;;;;;25.10;50.02;97578.90;595974;238;68672;-69
2023/03/01 10:15:40;;;;;;;;;;;;;;;25.09;51.15;97575.41;595806;238;65184;-70
2023/03/01 10:18:09;;;;;;;;;;;;;;;25.11;48.17;97572.45;596099;238;68971;-70
2023/03/01 10:20:51;;;;;;;;;;;;;;;25.11;51.50;97569.77;595872;238;66491;-69
2023/03/01 10:23:18;;;;;;;;;;;;;;;25.12;51.98;97564.09;596081;238;64873;-69
2023/03/01 10:25:50;;;;;;;;;;;;;;;25.10;53.57;97563.59;595951;238;68860;-68
2023/03/01 10:28:20;;;;;;;;;;;;;;;25.08;53.57;97563.06;595734;238;68291;-70
2023/03/01 10:30:47;;;;;;;;;;;;;;;25.07;52.17;97561.44;595955;238;64996;-69
2023/03/01 10:33:19;;;;;;;;;;;;;;;25.08;52.99;97559.58;596020;238;68633;-70
2023/03/01 10:35:48;;;;;;;;;;;;;;;25.07;52.41;97557.96;595921;238;66471;-69
2023/03/01 10:38:16;;;;;;;;;;;;;;;25.07;52.58;97549.89;596111;238;62972;-69
2023/03/01 10:40:58;;;;;;;;;;;;;;;25.06;52.20;97550.98;595562;238;66667;-70
2023/03/01 10:43:27;;;;;;;;;;;;;;;25.06;52.26;97546.41;596012;238;68832;-69
2023/03/01 10:45:54;;;;;;;;;;;;;;;25.06;53.79;97550.98;595744;238;65035;-72
2023/03/01 10:48:28;;;;;;;;;;;;;;;25.06;53.24;97548.30;595549;236;68609;-71
2023/03/01 10:51:00;;;;;;;;;;;;;;;25.07;53.37;97549.89;596005;238;68539;-72
2023/03/01 10:53:29;;;;;;;;;;;;;;;25.06;53.31;97542.92;596077;238;66066;-71
2023/03/01 10:55:58;;;;;;;;;;;;;;;25.06;53.64;97551.78;596015;238;66468;-71
2023/03/01 10:58:26;;;;;;;;;;;;;;;25.07;54.72;97545.31;596007;238;68465;-71
2023/03/01 11:00:54;;;;;;;;;;;;;;;25.07;53.74;97541.83;593838;238;62926;-71
2023/03/01 11:03:30;;;;;;;;;;;;;;;25.07;52.99;97539.14;594788;238;68704;-71
2023/03/01 11:06:08;;;;;;;;;;;;;;;25.07;53.31;97533.76;595737;238;70914;-71
2023/03/01 11:08:37;;;;;;;;;;;;;;;25.08;53.21;97527.31;595392;238;62912;-71
2023/03/01 11:11:07;;;;;;;;;;;;;;;25.07;54.02;97534.55;595772;237;68715;-71
2023/03/01 11:13:35;;;;;;;;;;;;;;;25.07;53.52;97523.80;595881;238;68364;-69
2023/03/01 11:16:04;;;;;;;;;;;;;;;25.08;55.29;97513.86;595700;238;62928;-71
2023/03/01 11:18:32;;;;;;;;;;;;;;;25.07;53.13;97518.42;595930;238;66456;-73
2023/03/01 11:21:01;;;;;;;;;;;;;;;25.08;53.57;97517.34;596001;238;66315;-74
2023/03/01 11:23:30;;;;;;;;;;;;;;;25.07;52.48;97512.24;594866;238;64911;-73
2023/03/01 11:25:59;;;;;;;;;;;;;;;25.08;53.26;97514.66;595893;238;66261;-73
2023/03/01 11:28:28;;;;;;;;;;;;;;;25.09;54.09;97515.45;595958;238;66127;-70
2023/03/01 11:30:57;;;;;;;;;;;;;;;25.09;53.44;97512.77;595738;238;65321;-73
2023/03/01 11:33:38;;;;;;;;;;;;;;;25.09;52.83;97512.77;595917;238;66647;-72
2023/03/01 11:36:07;;;;;;;;;;;;;;;25.10;52.93;97501.73;595424;238;68464;-71
2023/03/01 11:38:37;;;;;;;;;;;;;;;25.11;52.28;97497.16;589551;238;68275;-69
2023/03/01 11:41:07;;;;;;;;;;;;;;;25.12;51.55;97493.36;589562;238;71765;-70
2023/03/01 11:43:53;;;;;;;;;;;;;;;25.12;51.82;97494.16;595585;238;68720;-72
2023/03/01 11:46:35;;;;;;;;;;;;;;;25.14;50.88;97491.20;595733;238;64901;-71
2023/03/01 11:49:07;;;;;;;;;;;;;;;25.15;51.39;97487.44;595740;236;66402;-70
2023/03/01 11:51:39;;;;;;;;;;;;;;;25.16;52.05;97475.61;595908;238;66168;-70
2023/03/01 11:54:08;;;;;;;;;;;;;;;25.15;51.50;97482.06;595861;238;62816;-71
2023/03/01 11:56:37;;;;;;;;;;;;;;;25.16;50.36;97479.10;595689;238;66528;-71
2023/03/01 11:59:09;;;;;;;;;;;;;;;25.17;51.66;97474.52;595820;238;66505;-71
2023/03/01 12:01:54;;;;;;;;;;;;;;;25.17;51.16;97471.83;595577;238;64890;-69
2023/03/01 12:04:23;;;;;;;;;;;;;;;25.17;52.67;97469.94;595939;238;66407;-67
2023/03/01 12:06:56;;;;;;;;;;;;;;;25.17;52.31;97474.52;595991;238;66610;-71
2023/03/01 12:09:28;;;;;;;;;;;;;;;25.17;52.32;97475.31;595870;238;63864;-69
2023/03/01 12:12:10;;;;;;;;;;;;;;;25.18;52.18;97466.17;595810;238;69596;-72
2023/03/01 12:14:55;;;;;;;;;;;;;;;25.19;51.88;97467.77;595837;238;49566;-72
2023/03/01 12:17:33;;;;;;;;;;;;;;;25.20;50.57;97468.56;595891;238;62997;-71
2023/03/01 12:20:09;;;;;;;;;;;;;;;25.20;52.14;97455.11;595583;238;68733;-71
2023/03/01 12:22:52;;;;;;;;;;;;;;;25.19;51.98;97453.52;587842;238;66690;-71
2023/03/01 12:25:37;;;;;;;;;;;;;;;25.21;51.01;97460.22;595939;238;63056;-71
2023/03/01 12:28:13;;;;;;;;;;;;;;;25.21;51.60;97460.22;595947;238;68632;-77
2023/03/01 12:30:45;;;;;;;;;;;;;;;25.21;52.20;97464.80;595654;238;68392;-72
2023/03/01 12:33:32;;;;;;;;;;;;;;;25.22;52.00;97461.02;595639;238;65175;-72
2023/03/01 12:36:17;;;;;;;;;;;;;;;25.20;51.66;97457.80;595622;238;66624;-73
2023/03/01 12:38:52;;;;;;;;;;;;;;;25.21;52.96;97462.11;595860;238;68553;-74
2023/03/01 12:41:24;;;;;;;;;;;;;;;25.21;51.36;97459.42;595647;238;65098;-74
2023/03/01 12:43:56;;;;;;;;;;;;;;;25.22;52.25;97455.63;595852;238;68361;-75
2023/03/01 12:46:26;;;;;;;;;;;;;;;25.22;53.10;97455.63;595964;238;68502;-74
2023/03/01 12:48:57;;;;;;;;;;;;;;;25.21;51.32;97452.14;595890;236;65259;-75
2023/03/01 12:51:26;;;;;;;;;;;;;;;25.21;51.42;97449.45;595887;238;68849;-75
2023/03/01 12:53:55;;;;;;;;;;;;;;;25.22;52.11;97447.56;595857;238;68461;-74
2023/03/01 12:56:33;;;;;;;;;;;;;;;25.23;51.80;97457.22;595942;238;64894;-76
2023/03/01 12:59:02;;;;;;;;;;;;;;;25.23;50.64;97458.02;595903;238;68762;-76